createdAt,value
2022-10-02T00:00:07.373Z,0.15
2022-10-02T00:02:08.433Z,0.15
2022-10-02T00:04:06.011Z,0.15
2022-10-02T00:06:05.418Z,0.15
2022-10-02T00:08:06.120Z,0.15
2022-10-02T00:10:05.815Z,0.15
2022-10-02T00:12:05.218Z,0.15
2022-10-02T00:14:05.582Z,0.15
2022-10-02T00:16:05.384Z,0.15
2022-10-02T00:18:06.755Z,0.15
2022-10-02T00:20:05.086Z,0.15
2022-10-02T00:22:05.237Z,0.15
2022-10-02T00:24:05.707Z,0.15
2022-10-02T00:26:05.028Z,0.15
2022-10-02T00:28:05.991Z,0.15
2022-10-02T00:30:05.707Z,0.15
2022-10-02T00:32:06.468Z,0.15
2022-10-02T00:34:05.338Z,0.15
2022-10-02T00:36:08.047Z,0.15
2022-10-02T00:38:05.560Z,0.15
2022-10-02T00:40:05.159Z,0.15
2022-10-02T00:42:05.333Z,0.15
2022-10-02T00:44:05.956Z,0.15
2022-10-02T00:46:05.538Z,0.15
2022-10-02T00:48:06.182Z,0.15
2022-10-02T00:50:05.391Z,0.15
2022-10-02T00:52:06.022Z,0.15
2022-10-02T00:54:05.767Z,0.15
2022-10-02T00:56:06.040Z,0.15
2022-10-02T00:58:05.337Z,0.15
2022-10-02T01:00:06.026Z,0.15
2022-10-02T01:02:07.894Z,0.15
2022-10-02T01:04:05.705Z,0.15
2022-10-02T01:06:05.386Z,0.15
2022-10-02T01:08:05.999Z,0.15
2022-10-02T01:10:05.310Z,0.15
2022-10-02T01:12:04.972Z,0.15
2022-10-02T01:14:05.823Z,0.15
2022-10-02T01:16:05.872Z,0.15
2022-10-02T01:18:06.342Z,0.15
2022-10-02T01:20:05.112Z,0.15
2022-10-02T01:22:05.186Z,0.15
2022-10-02T01:24:05.259Z,0.15
2022-10-02T01:26:05.293Z,0.15
2022-10-02T01:28:12.811Z,0.15
2022-10-02T01:30:05.952Z,0.15
2022-10-02T01:32:05.676Z,0.15
2022-10-02T01:34:05.265Z,0.15
2022-10-02T01:36:05.162Z,0.15
2022-10-02T01:38:05.391Z,0.15
2022-10-02T01:40:05.264Z,0.15
2022-10-02T01:42:05.607Z,0.15
2022-10-02T01:44:04.905Z,0.15
2022-10-02T01:46:06.149Z,0.15
2022-10-02T01:48:06.675Z,0.15
2022-10-02T01:50:05.147Z,0.15
2022-10-02T01:52:05.341Z,0.15
2022-10-02T01:54:05.540Z,0.15
2022-10-02T01:56:04.928Z,0.15
2022-10-02T01:58:06.303Z,0.15
2022-10-02T02:00:05.827Z,0.15
2022-10-02T02:02:09.459Z,0.15
2022-10-02T02:04:05.773Z,0.15
2022-10-02T02:06:05.654Z,0.15
2022-10-02T02:08:05.487Z,0.15
2022-10-02T02:10:09.585Z,0.15
2022-10-02T02:12:05.499Z,0.15
2022-10-02T02:14:05.868Z,0.15
2022-10-02T02:16:05.719Z,14.24
2022-10-02T02:18:06.755Z,2.86
2022-10-02T02:20:05.917Z,2.86
2022-10-02T02:22:07.279Z,0.3
2022-10-02T02:24:05.775Z,0.28
2022-10-02T02:26:05.408Z,0.28
2022-10-02T02:28:06.530Z,0.22
2022-10-02T02:30:05.376Z,0.2
2022-10-02T02:32:06.115Z,0.2
2022-10-02T02:34:05.833Z,0.18
2022-10-02T02:36:05.479Z,0.18
2022-10-02T02:38:06.313Z,0.18
2022-10-02T02:40:04.974Z,0.17
2022-10-02T02:42:05.103Z,0.17
2022-10-02T02:44:10.229Z,0.17
2022-10-02T02:46:06.286Z,0.17
2022-10-02T02:48:06.629Z,0.17
2022-10-02T02:50:05.471Z,0.17
2022-10-02T02:52:05.693Z,0.17
2022-10-02T02:54:05.213Z,0.17
2022-10-02T02:56:07.768Z,0.17
2022-10-02T02:58:05.855Z,0.17
2022-10-02T03:00:05.522Z,0.17
2022-10-02T03:02:09.265Z,0.17
2022-10-02T03:04:06.485Z,0.17
2022-10-02T03:06:05.087Z,0.17
2022-10-02T03:08:05.947Z,0.17
2022-10-02T03:10:05.135Z,0.17
2022-10-02T03:12:05.510Z,0.17
2022-10-02T03:14:05.014Z,0.17
2022-10-02T03:16:06.072Z,0.17
2022-10-02T03:18:06.239Z,0.17
2022-10-02T03:20:05.205Z,0.17
2022-10-02T03:22:05.354Z,0.17
2022-10-02T03:24:06.321Z,0.17
2022-10-02T03:26:04.940Z,0.17
2022-10-02T03:28:09.283Z,0.17
2022-10-02T03:30:32.375Z,0.17
2022-10-02T03:32:05.752Z,0.17
2022-10-02T03:34:05.621Z,0.17
2022-10-02T03:36:05.012Z,0.17
2022-10-02T03:38:05.888Z,0.17
2022-10-02T03:40:33.551Z,0.17
2022-10-02T03:42:05.396Z,0.17
2022-10-02T03:44:05.898Z,0.17
2022-10-02T03:46:35.409Z,0.17
2022-10-02T03:48:06.304Z,0.17
2022-10-02T03:50:05.007Z,0.17
2022-10-02T03:52:06.614Z,0.17
2022-10-02T03:54:05.155Z,3.11
2022-10-02T03:56:05.393Z,3.11
2022-10-02T03:58:06.031Z,3.11
2022-10-02T04:00:05.085Z,3.11
2022-10-02T04:02:11.972Z,3.11
2022-10-02T04:04:06.010Z,3.11
2022-10-02T04:06:05.881Z,3.11
2022-10-02T04:08:05.614Z,3.11
2022-10-02T04:10:05.457Z,3.11
2022-10-02T04:12:05.287Z,3.11
2022-10-02T04:14:05.888Z,3.11
2022-10-02T04:16:06.113Z,3.11
2022-10-02T04:18:10.215Z,3.11
2022-10-02T04:20:05.937Z,3.11
2022-10-02T04:22:05.778Z,3.11
2022-10-02T04:24:05.098Z,3.11
2022-10-02T04:26:05.153Z,3.11
2022-10-02T04:28:06.160Z,3.11
2022-10-02T04:30:05.638Z,3.11
2022-10-02T04:32:06.280Z,3.11
2022-10-02T04:34:12.040Z,3.11
2022-10-02T04:36:05.386Z,3.11
2022-10-02T04:38:05.949Z,3.11
2022-10-02T04:40:09.318Z,3.11
2022-10-02T04:42:05.308Z,3.11
2022-10-02T04:44:05.313Z,3.11
2022-10-02T04:46:05.852Z,3.11
2022-10-02T04:48:06.307Z,3.11
2022-10-02T04:50:05.571Z,3.11
2022-10-02T04:52:05.543Z,3.11
2022-10-02T04:54:05.923Z,3.11
2022-10-02T04:56:05.893Z,3.11
2022-10-02T04:58:06.235Z,3.11
2022-10-02T05:00:05.778Z,3.11
2022-10-02T05:02:09.225Z,3.11
2022-10-02T05:04:06.236Z,3.11
2022-10-02T05:06:08.969Z,3.11
2022-10-02T05:08:06.675Z,3.11
2022-10-02T05:10:10.982Z,3.11
2022-10-02T05:12:06.439Z,3.11
2022-10-02T05:14:05.966Z,3.11
2022-10-02T05:16:06.477Z,3.11
2022-10-02T05:18:07.586Z,3.11
2022-10-02T05:20:10.641Z,3.11
2022-10-02T05:22:05.812Z,3.11
2022-10-02T05:24:05.522Z,3.11
2022-10-02T05:26:05.648Z,3.11
2022-10-02T05:28:07.649Z,3.11
2022-10-02T05:30:05.448Z,3.11
2022-10-02T05:32:06.192Z,3.11
2022-10-02T05:34:10.795Z,3.11
2022-10-02T05:36:05.955Z,3.11
2022-10-02T05:38:06.289Z,3.11
2022-10-02T05:40:05.372Z,3.11
2022-10-02T05:42:05.826Z,3.11
2022-10-02T05:44:10.029Z,3.11
2022-10-02T05:46:05.567Z,3.11
2022-10-02T05:48:06.057Z,3.11
2022-10-02T05:50:05.320Z,3.11
2022-10-02T05:52:05.284Z,3.11
2022-10-02T05:54:05.783Z,3.11
2022-10-02T05:56:05.233Z,3.11
2022-10-02T05:58:06.042Z,3.11
2022-10-02T06:00:05.169Z,3.11
2022-10-02T06:02:09.757Z,3.11
2022-10-02T06:04:09.713Z,3.11
2022-10-02T06:06:05.302Z,3.11
2022-10-02T06:08:06.279Z,3.11
2022-10-02T06:10:05.751Z,3.11
2022-10-02T06:12:05.838Z,3.11
2022-10-02T06:14:04.930Z,3.11
2022-10-02T06:16:09.726Z,3.11
2022-10-02T06:18:06.354Z,3.11
2022-10-02T06:20:05.263Z,3.11
2022-10-02T06:22:07.685Z,3.11
2022-10-02T06:24:05.850Z,3.11
2022-10-02T06:26:05.487Z,3.11
2022-10-02T06:28:06.682Z,3.11
2022-10-02T06:30:11.968Z,3.11
2022-10-02T06:32:05.954Z,3.11
2022-10-02T06:34:05.727Z,3.11
2022-10-02T06:36:07.081Z,3.11
2022-10-02T06:38:05.754Z,3.11
2022-10-02T06:40:05.090Z,3.11
2022-10-02T06:42:05.565Z,3.11
2022-10-02T06:44:05.607Z,3.11
2022-10-02T06:46:05.928Z,3.11
2022-10-02T06:48:10.343Z,3.11
2022-10-02T06:50:05.877Z,3.11
2022-10-02T06:52:05.232Z,3.11
2022-10-02T06:54:08.461Z,3.11
2022-10-02T06:56:05.700Z,3.11
2022-10-02T06:58:06.073Z,3.11
2022-10-02T07:00:05.859Z,3.11
2022-10-02T07:02:09.280Z,14.24
2022-10-02T07:04:05.640Z,14.24
2022-10-02T07:06:05.824Z,14.24
2022-10-02T07:08:05.561Z,14.24
2022-10-02T07:10:05.421Z,14.24
2022-10-02T07:12:05.067Z,14.24
2022-10-02T07:14:05.605Z,14.24
2022-10-02T07:16:05.457Z,14.24
2022-10-02T07:18:07.562Z,14.24
2022-10-02T07:20:05.025Z,14.24
2022-10-02T07:22:20.309Z,14.24
2022-10-02T07:24:37.943Z,14.24
2022-10-02T07:26:06.558Z,14.24
2022-10-02T07:28:06.597Z,14.24
2022-10-02T07:30:05.583Z,14.24
2022-10-02T07:32:05.845Z,14.24
2022-10-02T07:34:05.996Z,14.24
2022-10-02T07:36:05.363Z,14.24
2022-10-02T07:38:05.743Z,14.24
2022-10-02T07:40:05.347Z,14.24
2022-10-02T07:42:07.615Z,14.24
2022-10-02T07:44:05.297Z,14.24
2022-10-02T07:46:09.173Z,14.24
2022-10-02T07:48:06.533Z,14.24
2022-10-02T07:50:05.323Z,14.24
2022-10-02T07:52:06.071Z,14.24
2022-10-02T07:54:05.265Z,14.24
2022-10-02T07:56:05.623Z,14.24
2022-10-02T07:58:06.412Z,14.24
2022-10-02T08:00:05.125Z,14.24
2022-10-02T08:02:08.328Z,14.24
2022-10-02T08:04:06.219Z,14.24
2022-10-02T08:06:07.461Z,14.24
2022-10-02T08:08:05.978Z,5.79
2022-10-02T08:10:05.816Z,5.79
2022-10-02T08:12:11.740Z,5.79
2022-10-02T08:14:05.915Z,0.32
2022-10-02T08:16:06.251Z,0.32
2022-10-02T08:18:30.186Z,0.32
2022-10-02T08:20:40.783Z,0.22
2022-10-02T08:22:10.615Z,0.22
2022-10-02T08:24:05.610Z,0.22
2022-10-02T08:26:05.707Z,0.17
2022-10-02T08:28:06.728Z,0.17
2022-10-02T08:30:05.701Z,0.17
2022-10-02T08:32:06.386Z,0.15
2022-10-02T08:34:05.617Z,0.15
2022-10-02T08:36:05.913Z,0.15
2022-10-02T08:38:06.031Z,0.15
2022-10-02T08:40:05.564Z,0.15
2022-10-02T08:42:06.147Z,0.15
2022-10-02T08:44:05.905Z,0.15
2022-10-02T08:46:06.968Z,0.15
2022-10-02T08:48:06.254Z,0.15
2022-10-02T08:50:05.722Z,0.15
2022-10-02T08:52:05.291Z,0.15
2022-10-02T08:54:06.113Z,0.15
2022-10-02T08:56:05.288Z,0.14
2022-10-02T08:58:12.329Z,0.14
2022-10-02T09:00:05.266Z,0.14
2022-10-02T09:02:11.607Z,0.14
2022-10-02T09:04:06.397Z,0.14
2022-10-02T09:06:05.599Z,0.14
2022-10-02T09:08:12.440Z,0.14
2022-10-02T09:10:05.292Z,0.14
2022-10-02T09:12:05.451Z,0.14
2022-10-02T09:14:06.163Z,0.14
2022-10-02T09:16:06.960Z,0.14
2022-10-02T09:18:06.467Z,0.14
2022-10-02T09:20:05.255Z,0.14
2022-10-02T09:22:08.169Z,0.14
2022-10-02T09:24:05.507Z,0.14
2022-10-02T09:26:05.485Z,0.14
2022-10-02T09:28:06.276Z,0.14
2022-10-02T09:30:05.825Z,0.14
2022-10-02T09:32:06.328Z,0.14
2022-10-02T09:34:10.138Z,0.14
2022-10-02T09:36:05.058Z,0.14
2022-10-02T09:38:06.197Z,0.14
2022-10-02T09:40:09.416Z,0.14
2022-10-02T09:42:05.817Z,0.14
2022-10-02T09:44:05.550Z,0.14
2022-10-02T09:46:10.598Z,0.14
2022-10-02T09:48:06.815Z,0.14
2022-10-02T09:50:05.422Z,0.14
2022-10-02T09:52:07.160Z,0.14
2022-10-02T09:54:12.985Z,0.14
2022-10-02T09:56:05.961Z,0.14
2022-10-02T09:58:07.642Z,0.14
2022-10-02T10:00:06.174Z,0.14
2022-10-02T10:02:10.212Z,0.14
2022-10-02T10:04:07.653Z,0.14
2022-10-02T10:06:35.018Z,0.14
2022-10-02T10:08:05.579Z,0.14
2022-10-02T10:10:05.781Z,0.14
2022-10-02T10:12:05.730Z,0.14
2022-10-02T10:14:06.205Z,0.14
2022-10-02T10:16:06.108Z,0.14
2022-10-02T10:18:06.088Z,0.14
2022-10-02T10:20:05.916Z,0.14
2022-10-02T10:22:05.858Z,0.14
2022-10-02T10:24:05.388Z,0.14
2022-10-02T10:26:05.568Z,0.14
2022-10-02T10:28:06.379Z,0.14
2022-10-02T10:30:05.451Z,0.14
2022-10-02T10:32:06.553Z,0.14
2022-10-02T10:34:05.698Z,0.14
2022-10-02T10:36:05.863Z,0.14
2022-10-02T10:38:06.071Z,0.14
2022-10-02T10:40:05.684Z,0.14
2022-10-02T10:42:05.552Z,0.14
2022-10-02T10:44:27.607Z,0.14
2022-10-02T10:46:06.651Z,0.14
2022-10-02T10:48:06.482Z,0.14
2022-10-02T10:50:09.227Z,0.14
2022-10-02T10:52:06.545Z,0.14
2022-10-02T10:54:12.292Z,0.14
2022-10-02T10:56:06.475Z,0.14
2022-10-02T10:58:05.673Z,0.14
2022-10-02T11:00:10.775Z,0.14
2022-10-02T11:02:09.646Z,0.14
2022-10-02T11:04:06.533Z,0.14
2022-10-02T11:06:05.827Z,0.14
2022-10-02T11:08:07.229Z,0.14
2022-10-02T11:10:06.617Z,0.14
2022-10-02T11:12:09.529Z,0.14
2022-10-02T11:14:08.506Z,0.14
2022-10-02T11:16:07.143Z,0.14
2022-10-02T11:18:07.288Z,0.14
2022-10-02T11:20:07.548Z,0.14
2022-10-02T11:22:05.829Z,0.14
2022-10-02T11:24:06.123Z,0.14
2022-10-02T11:26:09.621Z,0.14
2022-10-02T11:28:05.577Z,0.14
2022-10-02T11:30:06.712Z,0.14
2022-10-02T11:32:12.643Z,0.14
2022-10-02T11:34:07.112Z,0.14
2022-10-02T11:36:05.373Z,0.14
2022-10-02T11:38:06.869Z,0.14
2022-10-02T11:40:08.188Z,0.14
2022-10-02T11:42:06.049Z,0.14
2022-10-02T11:44:06.832Z,0.14
2022-10-02T11:46:07.032Z,0.14
2022-10-02T11:48:06.522Z,0.14
2022-10-02T11:50:06.409Z,0.14
2022-10-02T11:52:05.654Z,0.14
2022-10-02T11:54:07.494Z,0.14
2022-10-02T11:56:05.796Z,0.14
2022-10-02T11:58:05.793Z,0.14
2022-10-02T12:00:07.002Z,0.14
2022-10-02T12:02:16.240Z,0.14
2022-10-02T12:04:10.787Z,0.14
2022-10-02T12:06:05.430Z,0.14
2022-10-02T12:08:05.554Z,0.14
2022-10-02T12:10:06.073Z,0.14
2022-10-02T12:12:05.661Z,0.14
2022-10-02T12:14:09.524Z,0.14
2022-10-02T12:16:05.918Z,0.14
2022-10-02T12:18:06.668Z,0.14
2022-10-02T12:20:05.872Z,0.15
2022-10-02T12:22:05.675Z,0.15
2022-10-02T12:24:06.231Z,0.15
2022-10-02T12:26:09.249Z,0.14
2022-10-02T12:28:06.046Z,0.14
2022-10-02T12:30:06.167Z,0.14
2022-10-02T12:32:05.750Z,0.14
2022-10-02T12:34:08.207Z,0.14
2022-10-02T12:36:05.890Z,0.14
2022-10-02T12:38:06.512Z,0.14
2022-10-02T12:40:07.408Z,0.14
2022-10-02T12:42:06.253Z,0.14
2022-10-02T12:44:05.404Z,0.15
2022-10-02T12:46:08.786Z,0.15
2022-10-02T12:48:05.471Z,0.15
2022-10-02T12:50:05.333Z,0.15
2022-10-02T12:52:13.696Z,0.15
2022-10-02T12:54:05.918Z,0.15
2022-10-02T12:56:05.148Z,0.15
2022-10-02T12:58:12.695Z,0.15
2022-10-02T13:00:05.959Z,0.15
2022-10-02T13:02:10.030Z,0.15
2022-10-02T13:04:38.692Z,0.15
2022-10-02T13:06:09.877Z,0.15
2022-10-02T13:08:06.985Z,0.15
2022-10-02T13:10:06.184Z,0.15
2022-10-02T13:12:10.651Z,0.15
2022-10-02T13:14:12.278Z,0.15
2022-10-02T13:16:06.781Z,0.15
2022-10-02T13:18:10.832Z,0.15
2022-10-02T13:20:07.359Z,0.15
2022-10-02T13:22:11.468Z,0.15
2022-10-02T13:24:09.648Z,0.15
2022-10-02T13:26:10.899Z,0.15
2022-10-02T13:28:12.181Z,0.15
2022-10-02T13:30:19.096Z,0.15
2022-10-02T13:32:17.602Z,0.15
2022-10-02T13:34:16.918Z,0.15
2022-10-02T13:36:11.126Z,0.15
2022-10-02T13:38:06.908Z,0.15
2022-10-02T13:40:06.747Z,0.15
2022-10-02T13:42:10.732Z,0.15
2022-10-02T13:44:10.065Z,0.15
2022-10-02T13:46:11.419Z,0.15
2022-10-02T13:48:10.363Z,0.15
2022-10-02T13:50:07.289Z,0.15
2022-10-02T13:52:14.717Z,0.15
2022-10-02T13:54:05.478Z,0.15
2022-10-02T13:56:07.243Z,0.15
2022-10-02T13:58:08.903Z,0.15
2022-10-02T14:00:06.730Z,0.15
2022-10-02T14:02:15.711Z,0.15
2022-10-02T14:04:08.699Z,0.15
2022-10-02T14:06:19.645Z,0.15
2022-10-02T14:08:07.760Z,0.15
2022-10-02T14:10:10.378Z,0.15
2022-10-02T14:12:06.731Z,0.15
2022-10-02T14:14:12.452Z,0.15
2022-10-02T14:16:08.983Z,0.15
2022-10-02T14:18:07.106Z,0.15
2022-10-02T14:20:10.239Z,0.15
2022-10-02T14:22:07.465Z,0.15
2022-10-02T14:24:10.224Z,0.15
2022-10-02T14:26:12.129Z,0.15
2022-10-02T14:28:11.118Z,0.15
2022-10-02T14:30:14.113Z,0.15
2022-10-02T14:32:24.482Z,0.15
2022-10-02T14:34:08.853Z,0.15
2022-10-02T14:36:09.483Z,0.15
2022-10-02T14:38:07.724Z,0.15
2022-10-02T14:40:11.326Z,0.15
2022-10-02T14:42:12.317Z,0.15
2022-10-02T14:44:06.571Z,0.15
2022-10-02T14:46:07.400Z,0.15
2022-10-02T14:48:13.230Z,0.15
2022-10-02T14:50:10.008Z,0.15
2022-10-02T14:52:07.163Z,0.15
2022-10-02T14:54:08.377Z,0.15
2022-10-02T14:56:05.744Z,0.15
2022-10-02T14:58:05.869Z,0.15
2022-10-02T15:00:05.379Z,0.15
2022-10-02T15:02:09.682Z,0.15
2022-10-02T15:04:05.970Z,0.15
2022-10-02T15:06:11.618Z,0.15
2022-10-02T15:08:05.682Z,0.15
2022-10-02T15:10:05.033Z,0.15
2022-10-02T15:12:06.174Z,0.15
2022-10-02T15:14:10.345Z,0.15
2022-10-02T15:16:05.528Z,0.15
2022-10-02T15:18:05.585Z,0.15
2022-10-02T15:20:11.559Z,0.15
2022-10-02T15:22:05.981Z,0.15
2022-10-02T15:24:05.696Z,0.15
2022-10-02T15:26:09.614Z,0.15
2022-10-02T15:28:24.517Z,0.15
2022-10-02T15:30:30.166Z,0.15
2022-10-02T15:32:05.910Z,0.15
2022-10-02T15:34:07.605Z,0.15
2022-10-02T15:36:05.470Z,0.15
2022-10-02T15:38:04.969Z,0.15
2022-10-02T15:40:10.155Z,0.15
2022-10-02T15:42:06.032Z,0.15
2022-10-02T15:44:09.116Z,0.17
2022-10-02T15:46:05.557Z,0.17
2022-10-02T15:48:06.632Z,0.17
2022-10-02T15:50:11.216Z,0.15
2022-10-02T15:52:05.776Z,0.15
2022-10-02T15:54:05.756Z,0.15
2022-10-02T15:56:04.987Z,0.15
2022-10-02T15:58:06.035Z,0.15
2022-10-02T16:00:05.935Z,0.15
2022-10-02T16:02:09.320Z,0.15
2022-10-02T16:04:05.851Z,0.15
2022-10-02T16:06:05.905Z,0.15
2022-10-02T16:08:10.328Z,0.17
2022-10-02T16:10:05.679Z,0.17
2022-10-02T16:12:05.270Z,0.17
2022-10-02T16:14:10.060Z,0.15
2022-10-02T16:16:05.992Z,0.15
2022-10-02T16:18:07.405Z,0.15
2022-10-02T16:20:05.238Z,0.15
2022-10-02T16:22:05.100Z,0.15
2022-10-02T16:24:10.465Z,0.15
2022-10-02T16:26:05.504Z,0.15
2022-10-02T16:28:06.812Z,0.15
2022-10-02T16:30:05.672Z,0.15
2022-10-02T16:32:05.925Z,0.15
2022-10-02T16:34:05.613Z,0.15
2022-10-02T16:36:06.709Z,0.15
2022-10-02T16:38:06.319Z,0.15
2022-10-02T16:40:05.935Z,0.15
2022-10-02T16:42:09.832Z,0.15
2022-10-02T16:44:05.630Z,0.15
2022-10-02T16:46:05.647Z,0.15
2022-10-02T16:48:05.924Z,0.15
2022-10-02T16:50:05.981Z,0.15
2022-10-02T16:52:11.857Z,0.15
2022-10-02T16:54:05.953Z,0.15
2022-10-02T16:56:05.918Z,0.15
2022-10-02T16:58:06.093Z,0.15
2022-10-02T17:00:09.377Z,0.15
2022-10-02T17:02:38.800Z,0.15
2022-10-02T17:04:22.892Z,0.15
2022-10-02T17:06:05.731Z,0.15
2022-10-02T17:08:06.863Z,0.15
2022-10-02T17:10:06.019Z,0.15
2022-10-02T17:12:12.012Z,0.15
2022-10-02T17:14:06.535Z,0.15
2022-10-02T17:16:06.648Z,0.15
2022-10-02T17:18:11.749Z,0.15
2022-10-02T17:20:06.062Z,0.15
2022-10-02T17:22:06.106Z,0.15
2022-10-02T17:24:09.092Z,0.15
2022-10-02T17:26:05.556Z,0.15
2022-10-02T17:28:06.289Z,0.15
2022-10-02T17:30:07.241Z,0.15
2022-10-02T17:32:07.144Z,0.15
2022-10-02T17:34:06.576Z,0.15
2022-10-02T17:36:07.309Z,0.15
2022-10-02T17:38:07.215Z,0.15
2022-10-02T17:40:06.319Z,0.15
2022-10-02T17:42:07.685Z,0.15
2022-10-02T17:44:05.706Z,0.15
2022-10-02T17:46:07.046Z,0.15
2022-10-02T17:48:09.116Z,0.15
2022-10-02T17:50:06.589Z,0.14
2022-10-02T17:52:44.969Z,0.14
2022-10-02T17:54:06.776Z,0.14
2022-10-02T17:56:06.253Z,0.15
2022-10-02T17:58:05.722Z,0.15
2022-10-02T18:00:07.536Z,0.15
2022-10-02T18:02:13.185Z,0.14
2022-10-02T18:04:06.140Z,0.14
2022-10-02T18:06:05.698Z,0.14
2022-10-02T18:08:07.129Z,0.15
2022-10-02T18:10:11.952Z,0.15
2022-10-02T18:12:06.481Z,0.15
2022-10-02T18:14:11.303Z,0.14
2022-10-02T18:16:06.741Z,0.14
2022-10-02T18:18:07.406Z,0.14
2022-10-02T18:20:06.500Z,0.15
2022-10-02T18:22:06.775Z,0.15
2022-10-02T18:24:06.578Z,0.15
2022-10-02T18:26:06.142Z,0.14
2022-10-02T18:28:13.312Z,0.14
2022-10-02T18:30:07.436Z,0.14
2022-10-02T18:32:37.782Z,0.14
2022-10-02T18:34:09.576Z,0.14
2022-10-02T18:36:12.973Z,0.14
2022-10-02T18:38:07.758Z,0.15
2022-10-02T18:40:17.483Z,0.15
2022-10-02T18:42:13.593Z,0.15
2022-10-02T18:44:07.127Z,0.14
2022-10-02T18:46:06.964Z,0.14
2022-10-02T18:48:06.453Z,0.14
2022-10-02T18:50:13.567Z,0.14
2022-10-02T18:52:06.174Z,0.14
2022-10-02T18:54:06.463Z,0.14
2022-10-02T18:56:06.235Z,0.15
2022-10-02T18:58:08.396Z,0.15
2022-10-02T19:00:07.619Z,0.15
2022-10-02T19:02:10.046Z,0.15
2022-10-02T19:04:05.807Z,0.15
2022-10-02T19:06:08.562Z,0.15
2022-10-02T19:08:08.017Z,0.15
2022-10-02T19:10:05.572Z,0.15
2022-10-02T19:12:05.903Z,0.15
2022-10-02T19:14:11.378Z,0.15
2022-10-02T19:16:05.583Z,0.15
2022-10-02T19:18:05.679Z,0.15
2022-10-02T19:20:05.073Z,0.15
2022-10-02T19:22:10.542Z,0.15
2022-10-02T19:24:05.043Z,0.15
2022-10-02T19:26:05.624Z,0.15
2022-10-02T19:28:05.780Z,0.15
2022-10-02T19:30:05.918Z,0.15
2022-10-02T19:32:06.207Z,0.15
2022-10-02T19:34:05.714Z,0.15
2022-10-02T19:36:05.579Z,0.15
2022-10-02T19:38:05.230Z,0.15
2022-10-02T19:40:09.055Z,0.15
2022-10-02T19:42:05.828Z,0.15
2022-10-02T19:44:05.588Z,0.17
2022-10-02T19:46:10.521Z,0.17
2022-10-02T19:48:05.646Z,0.17
2022-10-02T19:50:05.697Z,0.17
2022-10-02T19:52:05.611Z,0.17
2022-10-02T19:54:05.231Z,0.17
2022-10-02T19:56:10.603Z,0.17
2022-10-02T19:58:05.930Z,0.17
2022-10-02T20:00:06.693Z,0.17
2022-10-02T20:02:11.556Z,0.17
2022-10-02T20:04:05.540Z,0.17
2022-10-02T20:06:05.951Z,0.17
2022-10-02T20:08:07.057Z,0.17
2022-10-02T20:10:10.814Z,0.17
2022-10-02T20:12:05.339Z,0.17
2022-10-02T20:14:11.058Z,0.17
2022-10-02T20:16:05.560Z,0.17
2022-10-02T20:18:06.126Z,0.17
2022-10-02T20:20:05.791Z,0.17
2022-10-02T20:22:05.748Z,0.17
2022-10-02T20:24:04.929Z,0.17
2022-10-02T20:26:05.131Z,0.17
2022-10-02T20:28:05.952Z,0.17
2022-10-02T20:30:09.543Z,0.17
2022-10-02T20:32:06.084Z,0.17
2022-10-02T20:34:05.250Z,0.17
2022-10-02T20:36:06.018Z,0.17
2022-10-02T20:38:05.694Z,0.17
2022-10-02T20:40:12.635Z,0.17
2022-10-02T20:42:06.533Z,0.17
2022-10-02T20:44:05.622Z,0.17
2022-10-02T20:46:10.737Z,0.17
2022-10-02T20:48:05.714Z,0.17
2022-10-02T20:50:36.717Z,0.17
2022-10-02T20:52:09.684Z,0.17
2022-10-02T20:54:05.694Z,0.17
2022-10-02T20:56:05.100Z,0.17
2022-10-02T20:58:35.811Z,0.17
2022-10-02T21:00:05.798Z,0.17
2022-10-02T21:02:09.305Z,0.17
2022-10-02T21:04:05.572Z,0.17
2022-10-02T21:06:05.843Z,0.17
2022-10-02T21:08:13.976Z,0.17
2022-10-02T21:10:05.509Z,0.17
2022-10-02T21:12:05.586Z,0.17
2022-10-02T21:14:05.608Z,0.17
2022-10-02T21:16:05.207Z,0.17
2022-10-02T21:18:07.559Z,0.17
2022-10-02T21:20:05.038Z,0.17
2022-10-02T21:22:37.935Z,0.17
2022-10-02T21:24:05.177Z,0.17
2022-10-02T21:26:05.482Z,0.17
2022-10-02T21:28:06.315Z,0.17
2022-10-02T21:30:05.583Z,0.17
2022-10-02T21:32:06.681Z,0.17
2022-10-02T21:34:05.554Z,0.17
2022-10-02T21:36:05.314Z,0.17
2022-10-02T21:38:06.094Z,0.17
2022-10-02T21:42:05.567Z,0.17
2022-10-02T21:44:05.599Z,0.17
2022-10-02T21:46:11.876Z,0.17
2022-10-02T21:48:06.036Z,0.17
2022-10-02T21:50:05.596Z,0.17
2022-10-02T21:52:05.477Z,0.17
2022-10-02T21:54:05.293Z,0.17
2022-10-02T21:56:05.342Z,0.17
2022-10-02T21:58:11.107Z,0.17
2022-10-02T22:00:11.631Z,0.17
2022-10-02T22:02:41.582Z,0.17
2022-10-02T22:04:12.770Z,0.17
2022-10-02T22:06:06.232Z,0.17
2022-10-02T22:08:12.591Z,0.17
2022-10-02T22:10:05.241Z,0.17
2022-10-02T22:12:05.288Z,0.17
2022-10-02T22:14:04.959Z,0.17
2022-10-02T22:16:05.910Z,0.17
2022-10-02T22:18:06.394Z,0.17
2022-10-02T22:20:04.979Z,0.17
2022-10-02T22:22:04.952Z,0.17
2022-10-02T22:24:05.574Z,0.17
2022-10-02T22:26:05.327Z,0.17
2022-10-02T22:28:05.505Z,0.17
2022-10-02T22:30:05.845Z,0.17
2022-10-02T22:32:05.890Z,0.17
2022-10-02T22:34:05.806Z,0.17
2022-10-02T22:36:05.402Z,0.17
2022-10-02T22:38:05.235Z,0.17
2022-10-02T22:40:05.460Z,0.17
2022-10-02T22:42:05.686Z,0.17
2022-10-02T22:44:05.754Z,0.17
2022-10-02T22:46:05.980Z,0.17
2022-10-02T22:48:11.418Z,0.17
2022-10-02T22:50:05.383Z,0.17
2022-10-02T22:52:11.371Z,0.17
2022-10-02T22:54:06.173Z,0.17
2022-10-02T22:56:06.297Z,0.17
2022-10-02T22:58:06.076Z,0.17
2022-10-02T23:00:07.306Z,0.17
2022-10-02T23:02:12.452Z,0.17
2022-10-02T23:04:06.761Z,0.17
2022-10-02T23:06:06.241Z,0.17
2022-10-02T23:08:07.872Z,0.17
2022-10-02T23:10:05.838Z,0.17
2022-10-02T23:12:06.139Z,0.17
2022-10-02T23:14:10.073Z,0.17
2022-10-02T23:16:06.586Z,0.17
2022-10-02T23:18:05.647Z,0.17
2022-10-02T23:20:06.234Z,0.17
2022-10-02T23:22:08.788Z,0.17
2022-10-02T23:24:05.034Z,0.17
2022-10-02T23:26:05.657Z,0.17
2022-10-02T23:28:06.026Z,0.17
2022-10-02T23:30:06.193Z,0.17
2022-10-02T23:32:05.721Z,0.17
2022-10-02T23:34:05.713Z,0.17
2022-10-02T23:36:05.494Z,0.17
2022-10-02T23:38:05.945Z,0.17
2022-10-02T23:40:05.313Z,0.17
2022-10-02T23:42:05.939Z,0.17
2022-10-02T23:44:05.830Z,0.17
2022-10-02T23:46:05.448Z,0.17
2022-10-02T23:48:05.983Z,0.17
2022-10-02T23:50:05.472Z,0.17
2022-10-02T23:52:05.001Z,0.17
2022-10-02T23:54:05.720Z,0.17
2022-10-02T23:56:05.497Z,0.15
2022-10-02T23:58:06.804Z,0.15
